Aurora, Kansas
Current Conditions -  °F | °C
As of 10:55 AM on Saturday 20 Dec 2014 (Local Time) from KCNK Reporting Station
Haze Haze  
Wind Chill: 28°   Ceiling: Unl
Heat Index: 34°   Visibility: 6mi
Dew Point: 31°   Wind: 7mph
Humidity: 89%   Direction: 250°WSW
Pressure: 30.1"   Gusts: NA
Location:  39.45°N, 97.53°W
Report Text: KCNK 201655Z AUTO 25006KT 6SM BR CLR 01/M01 A3010 RMK AO2 SLP204 T00111006 $
Loading
Personal Weather Stations






























Interactive Weather Map New forecast layout! Learn more

10-Day Weather Forecast

Advertisements
Track Severe Weather on mobile